Abis Bremen — PCJO — position and weather

sailwx.info

Track history (hours):
 
Tides and Currents Weather Stations Pressure Air Temp Water Temp Dewpoint Dewpoint Depression Visibility Wind Speed Wind Dir Waves Ship Positions

Abis Bremen

Last reported at 2018-Nov-11 02:32 UTC. Time now 2018-Nov-18 16:09 UTC.
Position N 54°41' E 019°46'.

Length 90 m; draft 5.2 m.

Type: Ship. MMSI: 246778880.

Date/timePositionNaut miles runAvg speedWind from/ knotsBaromVisibWave heightAir tempDewpointWater temp
2018-Nov-11 02:32N 54°41' E 019°46'611.3
2018-Nov-11 02:02N 54°43' E 019°37'611.4
2018-Nov-11 01:32N 54°45' E 019°28'611.3
2018-Nov-11 01:02N 54°47' E 019°19'611.1
2018-Nov-11 00:32N 54°49' E 019°10'510.9
2018-Nov-11 00:02N 54°50' E 019°01'510.7
2018-Nov-10 23:32N 54°52' E 018°52'610.9
2018-Nov-10 23:02N 54°54' E 018°43'511.0
2018-Nov-10 22:32N 54°55' E 018°34'4211.0
2018-Nov-10 18:45N 54°53' E 017°21'2 9.9
2018-Nov-10 18:32N 54°52' E 017°18'810.0
2018-Nov-10 17:44N 54°51' E 017°04'210.0
2018-Nov-10 17:32N 54°50' E 017°01'710.0
2018-Nov-10 16:49N 54°48' E 016°49'710.0
2018-Nov-10 16:10N 54°47' E 016°38'2011.4
2018-Nov-10 14:26N 54°45' E 016°03'511.6
2018-Nov-10 13:58N 54°45' E 015°54'2211.7
2018-Nov-10 12:05N 54°44' E 015°16'611.6
2018-Nov-10 11:36N 54°44' E 015°06'111.6
2018-Nov-10 11:31N 54°44' E 015°05'611.8
2018-Nov-10 11:02N 54°43' E 014°55'1511.6
2018-Nov-10 09:44N 54°43' E 014°29'5011.1
2018-Nov-10 05:14N 54°45' E 013°03'811.0
2018-Nov-10 04:30N 54°44' E 012°48'510.6
2018-Nov-10 04:02N 54°43' E 012°40'611.3
2018-Nov-10 03:32N 54°39' E 012°33'611.5
2018-Nov-10 03:02N 54°35' E 012°26'611.5
2018-Nov-10 02:32N 54°32' E 012°18'611.4
2018-Nov-10 02:00N 54°26' E 012°13'510.3
2018-Nov-10 01:32N 54°25' E 012°05'611.3
2018-Nov-10 01:02N 54°25' E 011°55'711.6
2018-Nov-10 00:28N 54°25' E 011°44'511.4
2018-Nov-10 00:02N 54°27' E 011°36'510.8
2018-Nov-09 23:32N 54°30' E 011°28'510.5
2018-Nov-09 23:02N 54°32' E 011°20'5 9.9
2018-Nov-09 22:32N 54°34' E 011°13'510.1
2018-Nov-09 22:02N 54°35' E 011°04'611.2
2018-Nov-09 21:32N 54°35' E 010°54'611.5
2018-Nov-09 21:02N 54°34' E 010°45'611.4
2018-Nov-09 20:32N 54°34' E 010°35'611.6
2018-Nov-09 20:02N 54°31' E 010°26'611.4
2018-Nov-09 19:32N 54°29' E 010°17'611.1
2018-Nov-09 19:02N 54°24' E 010°12'3 6.0
2018-Nov-09 18:32N 54°22' E 010°09'0 0.0
2018-Nov-09 18:02N 54°22' E 010°09'2 3.8
2018-Nov-09 17:32N 54°22' E 010°05'4 7.9
2018-Nov-09 17:02N 54°21' E 009°59'2 4.5
2018-Nov-09 16:32N 54°21' E 009°55'4 8.0
2018-Nov-09 16:02N 54°22' E 009°49'4 8.2
2018-Nov-09 15:32N 54°19' E 009°43'4 7.4
2018-Nov-09 15:02N 54°17' E 009°38'4 7.5
2018-Nov-09 14:32N 54°13' E 009°36'4 8.2
2018-Nov-09 14:02N 54°11' E 009°30'4 8.5
2018-Nov-09 13:32N 54°10' E 009°24'5 7.4
2018-Nov-09 12:49N 54°05' E 009°19'4 8.2
2018-Nov-09 12:22N 54°01' E 009°18'3 8.4
2018-Nov-09 12:02N 53°59' E 009°16'4 8.4
2018-Nov-09 11:32N 53°55' E 009°12'2 5.0
2018-Nov-09 11:02N 53°54' E 009°09'1 1.3
2018-Nov-09 10:32N 53°53' E 009°08'3 6.3
2018-Nov-09 10:02N 53°52' E 009°03'611.3
2018-Nov-09 09:32N 53°50' E 008°54'611.2
2018-Nov-09 09:02N 53°52' E 008°44'611.1
2018-Nov-09 08:32N 53°56' E 008°39'611.0
2018-Nov-09 08:02N 53°58' E 008°30'611.0
2018-Nov-09 07:32N 53°59' E 008°21'611.3
2018-Nov-09 07:02N 53°59' E 008°12'510.8
2018-Nov-09 06:32N 54°00' E 008°03'611.1
2018-Nov-09 06:02N 54°03' E 007°54'510.9
2018-Nov-09 05:32N 54°05' E 007°46'610.5
2018-Nov-09 05:00N 54°08' E 007°37'510.1
2018-Nov-09 04:31N 54°09' E 007°29'1210.5
2018-Nov-09 03:23N 54°09' E 007°09'1210.4
2018-Nov-09 02:14N 54°09' E 006°48'1410.6
2018-Nov-09 00:53N 54°09' E 006°24'27010.8
2018-Nov-07 23:59N 55°41' W 000°56'4 8.8
2018-Nov-07 23:32N 55°43' W 001°03'4 8.5
2018-Nov-07 23:02N 55°44' W 001°10'4 8.4
2018-Nov-07 22:32N 55°46' W 001°17'4 8.3
2018-Nov-07 22:03N 55°47' W 001°24'4 7.7
2018-Nov-07 21:32N 55°49' W 001°30'4 7.1
2018-Nov-07 21:02N 55°50' W 001°36'3 6.7
2018-Nov-07 20:32N 55°51' W 001°42'3 6.6
2018-Nov-07 20:02N 55°52' W 001°47'3 6.7
2018-Nov-07 19:32N 55°54' W 001°53'3 6.6
2018-Nov-07 19:02N 55°55' W 001°58'4 7.2
2018-Nov-07 18:32N 55°56' W 002°04'14 9.7
2018-Nov-07 17:08N 56°02' W 002°26'110.6
2018-Nov-07 17:02N 56°02' W 002°28'510.6
2018-Nov-07 16:32N 56°05' W 002°36'611.1
2018-Nov-07 16:02N 56°05' W 002°46'611.6
2018-Nov-07 15:32N 56°04' W 002°56'3 5.6
2018-Nov-07 15:00N 56°01' W 002°59'0 0.0
2018-Nov-07 14:30N 56°01' W 002°59'0 0.1
2018-Nov-07 14:00N 56°01' W 002°59'0 0.0
2018-Nov-07 13:30N 56°01' W 002°59'0 0.0
2018-Nov-07 13:00N 56°01' W 002°59'0 0.0
2018-Nov-07 12:30N 56°01' W 002°59'0 0.0
2018-Nov-07 12:00N 56°01' W 002°59'0 0.0
2018-Nov-07 11:30N 56°01' W 002°59'0 0.0
2018-Nov-07 11:00N 56°01' W 002°59'0 0.0
2018-Nov-07 10:30N 56°01' W 002°59'0 0.0
2018-Nov-07 10:00N 56°01' W 002°59'0 0.0
2018-Nov-07 09:30N 56°01' W 002°59'0 0.0
2018-Nov-07 09:00N 56°01' W 002°59'0 0.0
2018-Nov-07 08:30N 56°01' W 002°59'0 0.0
2018-Nov-07 08:00N 56°01' W 002°59'0 0.0
2018-Nov-07 07:30N 56°01' W 002°59'0 0.0
2018-Nov-07 07:00N 56°01' W 002°59'0 0.0
2018-Nov-07 06:30N 56°01' W 002°59'0 0.1
2018-Nov-07 06:00N 56°01' W 002°59'0 0.0
2018-Nov-07 05:30N 56°01' W 002°59'0 0.0
2018-Nov-07 05:00N 56°01' W 002°59'0 0.0
2018-Nov-07 04:30N 56°01' W 002°59'0 0.0
2018-Nov-06 23:30N 56°01' W 002°59'0 0.0
2018-Nov-06 23:03N 56°01' W 002°59'0 0.1
2018-Nov-06 22:57N 56°01' W 002°59'0 0.0
2018-Nov-06 22:00N 56°01' W 002°59'3 6.0
2018-Nov-06 21:30N 56°02' W 003°05'4 8.4
2018-Nov-06 21:03N 56°00' W 003°11'0 8.0
2018-Nov-06 21:01N 56°00' W 003°12'1 1.8
2018-Nov-06 20:30N 55°59' W 003°11'0 0.6
2018-Nov-06 20:03N 55°59' W 003°10'0 1.0
2018-Nov-06 19:55N 55°59' W 003°10'0 0.0
2018-Nov-06 19:28N 55°59' W 003°10'0 0.0
2018-Nov-06 18:58N 55°59' W 003°10'0 0.0
2018-Nov-06 18:25N 55°59' W 003°10'0 0.0
2018-Nov-06 17:58N 55°59' W 003°10'0 0.0
2018-Nov-06 17:28N 55°59' W 003°10'0 0.0
2018-Nov-06 16:43N 55°59' W 003°10'0 0.0
2018-Nov-06 16:28N 55°59' W 003°10'0 0.0
2018-Nov-06 16:01N 55°59' W 003°10'0 0.0
2018-Nov-06 15:58N 55°59' W 003°10'0 0.0
2018-Nov-06 15:28N 55°59' W 003°10'0 0.0
2018-Nov-06 15:01N 55°59' W 003°10'0 0.0
2018-Nov-06 14:58N 55°59' W 003°10'0 0.0
2018-Nov-06 14:28N 55°59' W 003°10'0 0.0
2018-Nov-06 14:01N 55°59' W 003°10'0 0.0
2018-Nov-06 13:55N 55°59' W 003°10'0 0.0
2018-Nov-06 13:28N 55°59' W 003°10'0 0.0
2018-Nov-06 13:01N 55°59' W 003°10'0 0.1
2018-Nov-06 12:58N 55°59' W 003°10'0 0.0
2018-Nov-06 12:28N 55°59' W 003°10'0 0.0
2018-Nov-06 11:58N 55°59' W 003°10'0 0.0
2018-Nov-06 11:28N 55°59' W 003°10'0 0.0
2018-Nov-06 11:01N 55°59' W 003°10'0 0.0
2018-Nov-06 10:58N 55°59' W 003°10'0 0.0
2018-Nov-06 10:28N 55°59' W 003°10'0 0.0
2018-Nov-06 10:01N 55°59' W 003°10'0 0.0
2018-Nov-06 09:58N 55°59' W 003°10'0 0.0
2018-Nov-06 09:28N 55°59' W 003°10'0 0.0
2018-Nov-06 09:01N 55°59' W 003°10'0 0.0
2018-Nov-06 08:58N 55°59' W 003°10'0 0.0
2018-Nov-06 08:28N 55°59' W 003°10'0 0.0
2018-Nov-06 08:01N 55°59' W 003°10'0 0.0
2018-Nov-06 07:58N 55°59' W 003°10'0 0.0
2018-Nov-06 07:25N 55°59' W 003°10'0 0.0
2018-Nov-06 07:01N 55°59' W 003°10'0 0.0
2018-Nov-06 06:58N 55°59' W 003°10'0 0.0
2018-Nov-06 06:28N 55°59' W 003°10'0 0.0
2018-Nov-06 06:01N 55°59' W 003°10'0 0.0
2018-Nov-06 05:58N 55°59' W 003°10'0 0.0
2018-Nov-06 05:28N 55°59' W 003°10'0 0.0
2018-Nov-06 05:01N 55°59' W 003°10'0 0.0
2018-Nov-06 04:58N 55°59' W 003°10'0 0.0
2018-Nov-06 04:28N 55°59' W 003°10'0 0.0
2018-Nov-06 04:01N 55°59' W 003°10'0 0.0
2018-Nov-06 03:58N 55°59' W 003°10'0 0.0
2018-Nov-06 03:28N 55°59' W 003°10'0 0.0
2018-Nov-06 03:01N 55°59' W 003°10'0 0.1
2018-Nov-06 02:58N 55°59' W 003°10'0 0.0
2018-Nov-06 02:28N 55°59' W 003°10'0 0.0
2018-Nov-06 02:01N 55°59' W 003°10'0 0.0
2018-Nov-06 01:58N 55°59' W 003°10'0 0.0
2018-Nov-06 01:28N 55°59' W 003°10'0 0.0
2018-Nov-06 00:58N 55°59' W 003°10'0 0.0
2018-Nov-05 23:28N 55°59' W 003°10'0 0.0
2018-Nov-05 23:01N 55°59' W 003°10'0 0.0
2018-Nov-05 22:58N 55°59' W 003°10'0 0.0
2018-Nov-05 22:28N 55°59' W 003°10'0 0.0
2018-Nov-05 22:01N 55°59' W 003°10'0 0.0
2018-Nov-05 21:58N 55°59' W 003°10'0 0.0
2018-Nov-05 21:28N 55°59' W 003°10'0 0.0
2018-Nov-05 21:01N 55°59' W 003°10'0 0.0
2018-Nov-05 20:58N 55°59' W 003°10'0 0.0
2018-Nov-05 20:28N 55°59' W 003°10'0 0.0
2018-Nov-05 20:01N 55°59' W 003°10'0 0.0
2018-Nov-05 19:58N 55°59' W 003°10'0 0.0
2018-Nov-05 19:28N 55°59' W 003°10'0 0.0
2018-Nov-05 19:01N 55°59' W 003°10'0 0.1
2018-Nov-05 18:58N 55°59' W 003°10'0 0.0
2018-Nov-05 18:28N 55°59' W 003°10'0 0.0
2018-Nov-05 18:01N 55°59' W 003°10'0 0.0
2018-Nov-05 17:58N 55°59' W 003°10'0 0.0
2018-Nov-05 17:28N 55°59' W 003°10'0 0.0
2018-Nov-05 17:01N 55°59' W 003°10'0 0.0
2018-Nov-05 16:58N 55°59' W 003°10'0 0.0
2018-Nov-05 16:28N 55°59' W 003°10'0 0.0
2018-Nov-05 16:01N 55°59' W 003°10'0 0.0
2018-Nov-05 15:58N 55°59' W 003°10'0 0.0
2018-Nov-05 15:28N 55°59' W 003°10'0 0.0
2018-Nov-05 15:01N 55°59' W 003°10'0 0.0
2018-Nov-05 14:58N 55°59' W 003°10'0 0.0
2018-Nov-05 14:28N 55°59' W 003°10'0 0.0
2018-Nov-05 14:01N 55°59' W 003°10'0 0.0
2018-Nov-05 13:16N 55°59' W 003°10'0 0.0
2018-Nov-05 12:04N 55°59' W 003°10'0 0.0
2018-Nov-05 11:58N 55°59' W 003°10'0 0.0
2018-Nov-05 11:28N 55°59' W 003°10'0 0.0
2018-Nov-05 10:52N 55°59' W 003°10'0 0.0
2018-Nov-05 10:28N 55°59' W 003°10'0 0.0
2018-Nov-05 09:55N 55°59' W 003°10'0 0.0
2018-Nov-05 09:28N 55°59' W 003°10'0 0.0
2018-Nov-05 08:52N 55°59' W 003°10'0 0.0
2018-Nov-05 08:28N 55°59' W 003°10'0 0.0
2018-Nov-05 08:01N 55°59' W 003°10'0 0.0
2018-Nov-05 07:58N 55°59' W 003°10'0 0.0
2018-Nov-05 07:28N 55°59' W 003°10'0 0.0
2018-Nov-05 07:01N 55°59' W 003°10'0 0.0
2018-Nov-05 06:58N 55°59' W 003°10'0 0.0
2018-Nov-05 06:28N 55°59' W 003°10'0 0.0
2018-Nov-05 06:01N 55°59' W 003°10'0 0.0
2018-Nov-05 05:58N 55°59' W 003°10'0 0.0
2018-Nov-05 05:28N 55°59' W 003°10'0 0.0
2018-Nov-05 05:01N 55°59' W 003°10'0 0.0
2018-Nov-05 04:58N 55°59' W 003°10'0 0.0
2018-Nov-05 04:28N 55°59' W 003°10'0 0.0
2018-Nov-05 04:01N 55°59' W 003°10'0 0.0
2018-Nov-05 03:58N 55°59' W 003°10'0 0.0
2018-Nov-05 03:28N 55°59' W 003°10'0 0.0
2018-Nov-05 03:01N 55°59' W 003°10'0 0.0
2018-Nov-05 02:58N 55°59' W 003°10'0 0.0
2018-Nov-05 02:28N 55°59' W 003°10'0 0.0
2018-Nov-05 02:01N 55°59' W 003°10'0 0.0
2018-Nov-05 01:58N 55°59' W 003°10'0 0.0
2018-Nov-05 01:28N 55°59' W 003°10'0 0.0
2018-Nov-05 01:01N 55°59' W 003°10'0 0.1
2018-Nov-05 00:58N 55°59' W 003°10'0 0.0
2018-Nov-05 00:28N 55°59' W 003°10'0 0.0
2018-Nov-05 00:01N 55°59' W 003°10'0 0.0
2018-Nov-04 23:58N 55°59' W 003°10'0 0.0
2018-Nov-04 23:28N 55°59' W 003°10'0 0.0
2018-Nov-04 23:01N 55°59' W 003°10'0 0.0
2018-Nov-04 22:58N 55°59' W 003°10'0 0.0
2018-Nov-04 22:28N 55°59' W 003°10'0 0.0
2018-Nov-04 22:01N 55°59' W 003°10'0 0.0
2018-Nov-04 21:58N 55°59' W 003°10'0 0.0
2018-Nov-04 21:28N 55°59' W 003°10'0 0.0
2018-Nov-04 21:01N 55°59' W 003°10'0 0.0
2018-Nov-04 20:58N 55°59' W 003°10'0 0.0
2018-Nov-04 20:28N 55°59' W 003°10'0 0.0
2018-Nov-04 19:55N 55°59' W 003°10'0 0.0
2018-Nov-04 19:25N 55°59' W 003°10'0 0.0
2018-Nov-04 19:01N 55°59' W 003°10'0 0.0
2018-Nov-04 18:55N 55°59' W 003°10'0 0.0
2018-Nov-04 18:28N 55°59' W 003°10'0 0.0
2018-Nov-04 18:01N 55°59' W 003°10'0 0.0
2018-Nov-04 17:58N 55°59' W 003°10'0 0.0
2018-Nov-04 17:28N 55°59' W 003°10'0 0.0
2018-Nov-04 16:52N 55°59' W 003°10'0 0.0
2018-Nov-04 16:28N 55°59' W 003°10'0 0.0
2018-Nov-04 16:01N 55°59' W 003°10'0 0.0
2018-Nov-04 15:52N 55°59' W 003°10'0 0.0
2018-Nov-04 15:28N 55°59' W 003°10'0 0.0
2018-Nov-04 15:01N 55°59' W 003°10'0 0.0
2018-Nov-04 14:58N 55°59' W 003°10'0 0.0
2018-Nov-04 14:25N 55°59' W 003°10'0 0.0
2018-Nov-04 13:58N 55°59' W 003°10'0 0.0
2018-Nov-04 13:28N 55°59' W 003°10'0 0.0
2018-Nov-04 13:01N 55°59' W 003°10'0 0.1
2018-Nov-04 12:58N 55°59' W 003°10'0 0.0
2018-Nov-04 12:28N 55°59' W 003°10'0 0.0
2018-Nov-04 12:01N 55°59' W 003°10'0 0.0
2018-Nov-04 11:58N 55°59' W 003°10'0 0.0
2018-Nov-04 11:25N 55°59' W 003°10'0 0.0
2018-Nov-04 11:01N 55°59' W 003°10'0 0.0
2018-Nov-04 10:46N 55°59' W 003°10'0 0.0
2018-Nov-04 10:28N 55°59' W 003°10'0 0.0
2018-Nov-04 09:58N 55°59' W 003°10'0 0.0
2018-Nov-04 09:28N 55°59' W 003°10'0 0.0
2018-Nov-04 09:01N 55°59' W 003°10'0 0.0
2018-Nov-04 08:49N 55°59' W 003°10'0 0.0
2018-Nov-04 08:28N 55°59' W 003°10'0 0.0
2018-Nov-04 07:58N 55°59' W 003°10'0 0.0
2018-Nov-04 07:28N 55°59' W 003°10'0 0.0
2018-Nov-04 07:01N 55°59' W 003°10'0 0.0
2018-Nov-04 06:58N 55°59' W 003°10'0 0.0
2018-Nov-04 06:28N 55°59' W 003°10'0 0.0
2018-Nov-04 06:01N 55°59' W 003°10'0 0.0
2018-Nov-04 05:58N 55°59' W 003°10'0 0.0
2018-Nov-04 05:28N 55°59' W 003°10'0 0.0
2018-Nov-04 05:01N 55°59' W 003°10'0 0.0
2018-Nov-04 04:58N 55°59' W 003°10'0 0.0
2018-Nov-04 04:28N 55°59' W 003°10'0 0.0
2018-Nov-04 04:01N 55°59' W 003°10'0 0.0
2018-Nov-04 03:58N 55°59' W 003°10'0 0.0
2018-Nov-04 03:28N 55°59' W 003°10'0 0.0
2018-Nov-04 03:01N 55°59' W 003°10'0 0.1
2018-Nov-04 02:58N 55°59' W 003°10'0 0.0
2018-Nov-04 02:28N 55°59' W 003°10'0 0.0
2018-Nov-04 02:01N 55°59' W 003°10'0 0.0
2018-Nov-04 01:58N 55°59' W 003°10'0 0.0
2018-Nov-04 01:28N 55°59' W 003°10'0 0.0
2018-Nov-04 01:01N 55°59' W 003°10'0 0.0
2018-Nov-04 00:58N 55°59' W 003°10'0 0.0
2018-Nov-04 00:28N 55°59' W 003°10'0 0.0
2018-Nov-04 00:01N 55°59' W 003°10'0 0.1
2018-Nov-03 23:58N 55°59' W 003°10'0 0.0
2018-Nov-03 23:28N 55°59' W 003°10'0 0.0
2018-Nov-03 23:01N 55°59' W 003°10'0 0.0
2018-Nov-03 22:58N 55°59' W 003°10'0 0.0
2018-Nov-03 22:28N 55°59' W 003°10'0 0.0
2018-Nov-03 20:22N 55°59' W 003°10'0 0.0
2018-Nov-03 19:58N 55°59' W 003°10'0 0.0
2018-Nov-03 19:28N 55°59' W 003°10'0 0.0
2018-Nov-03 19:01N 55°59' W 003°10'0 0.0
2018-Nov-03 18:58N 55°59' W 003°10'0 0.0
2018-Nov-03 18:28N 55°59' W 003°10'0 0.0
2018-Nov-03 18:01N 55°59' W 003°10'0 0.0
2018-Nov-03 17:52N 55°59' W 003°10'0 0.0
2018-Nov-03 17:22N 55°59' W 003°10'0 0.0
2018-Nov-03 17:01N 55°59' W 003°10'0 0.0
2018-Nov-03 16:58N 55°59' W 003°10'0 0.0
2018-Nov-03 16:28N 55°59' W 003°10'0 0.0
2018-Nov-03 15:55N 55°59' W 003°10'0 0.0
2018-Nov-03 15:28N 55°59' W 003°10'0 0.0
2018-Nov-03 15:01N 55°59' W 003°10'0 0.0
2018-Nov-03 14:58N 55°59' W 003°10'0 0.0
2018-Nov-03 14:28N 55°59' W 003°10'0 0.0
2018-Nov-03 14:01N 55°59' W 003°10'0 0.1
2018-Nov-03 13:55N 55°59' W 003°10'0 0.0
2018-Nov-03 13:22N 55°59' W 003°10'0 0.0
2018-Nov-03 13:01N 55°59' W 003°10'0 0.0
2018-Nov-03 12:58N 55°59' W 003°10'0 0.0
2018-Nov-03 12:16N 55°59' W 003°10'0 0.0
2018-Nov-03 11:49N 55°59' W 003°10'0 0.0
2018-Nov-03 11:28N 55°59' W 003°10'0 0.0
2018-Nov-03 11:01N 55°59' W 003°10'0 0.0
2018-Nov-03 10:55N 55°59' W 003°10'0 0.0
2018-Nov-03 10:22N 55°59' W 003°10'0 0.0
2018-Nov-03 09:58N 55°59' W 003°10'0 0.0
2018-Nov-03 09:22N 55°59' W 003°10'0 0.0
2018-Nov-03 09:01N 55°59' W 003°10'0 0.0
2018-Nov-03 08:34N 55°59' W 003°10'0 0.0
2018-Nov-03 08:28N 55°59' W 003°10'0 0.0
2018-Nov-03 07:40N 55°59' W 003°10'0 0.0
2018-Nov-03 07:28N 55°59' W 003°10'0 0.0
2018-Nov-03 07:01N 55°59' W 003°10'0 0.1
2018-Nov-03 06:58N 55°59' W 003°10'0 0.0
2018-Nov-03 06:28N 55°59' W 003°10'0 0.0
2018-Nov-03 06:01N 55°59' W 003°10'0 0.0
2018-Nov-03 05:58N 55°59' W 003°10'0 0.0
2018-Nov-03 05:28N 55°59' W 003°10'0 0.0
2018-Nov-03 05:01N 55°59' W 003°10'0 0.0
2018-Nov-03 04:58N 55°59' W 003°10'0 0.0
2018-Nov-03 04:28N 55°59' W 003°10'0 0.0
2018-Nov-03 04:01N 55°59' W 003°10'0 0.0
2018-Nov-03 03:58N 55°59' W 003°10'0 0.0
2018-Nov-03 03:28N 55°59' W 003°10'0 0.0
2018-Nov-03 03:01N 55°59' W 003°10'0 0.0
2018-Nov-03 02:58N 55°59' W 003°10'0 0.0
2018-Nov-03 02:28N 55°59' W 003°10'0 0.0
2018-Nov-03 02:01N 55°59' W 003°10'0 0.0
2018-Nov-03 01:58N 55°59' W 003°10'0 0.0
2018-Nov-03 01:22N 55°59' W 003°10'0 0.0
2018-Nov-03 01:01N 55°59' W 003°10'0 0.0
2018-Nov-03 00:58N 55°59' W 003°10'0 0.0
2018-Nov-03 00:28N 55°59' W 003°10'0 0.0
2018-Nov-02 23:52N 55°59' W 003°10'0 0.0
2018-Nov-02 23:16N 55°59' W 003°10'0 0.0
2018-Nov-02 22:58N 55°59' W 003°10'0 0.0
2018-Nov-02 22:28N 55°59' W 003°10'0 0.0
2018-Nov-02 21:58N 55°59' W 003°10'0 0.0
2018-Nov-02 21:22N 55°59' W 003°10'0 0.0
2018-Nov-02 19:52N 55°59' W 003°10'0 0.0
2018-Nov-02 19:16N 55°59' W 003°10'0 0.0
2018-Nov-02 17:58N 55°59' W 003°10'0 0.0
2018-Nov-02 16:19N 55°59' W 003°10'0 0.0
2018-Nov-02 15:49N 55°59' W 003°10'0 0.0
2018-Nov-02 15:25N 55°59' W 003°10'0 0.0
2018-Nov-02 15:01N 55°59' W 003°10'0 0.0
2018-Nov-02 14:40N 55°59' W 003°10'0 0.0
2018-Nov-02 14:28N 55°59' W 003°10'0 0.0
2018-Nov-02 13:49N 55°59' W 003°10'0 0.0
2018-Nov-02 13:10N 55°59' W 003°10'0 0.0
2018-Nov-02 12:58N 55°59' W 003°10'0 0.0
2018-Nov-02 11:49N 55°59' W 003°10'0 0.0
2018-Nov-02 11:28N 55°59' W 003°10'0 0.0
2018-Nov-02 10:49N 55°59' W 003°10'0 0.0
2018-Nov-02 10:28N 55°59' W 003°10'0 0.0
2018-Nov-02 10:01N 55°59' W 003°10'0 0.0
2018-Nov-02 09:49N 55°59' W 003°10'0 0.0
2018-Nov-02 09:13N 55°59' W 003°10'0 0.0
2018-Nov-02 08:46N 55°59' W 003°10'0 0.0
2018-Nov-02 08:28N 55°59' W 003°10'0 0.0
2018-Nov-02 06:58N 55°59' W 003°10'0 0.0
2018-Nov-02 06:28N 55°59' W 003°10'0 0.0
2018-Nov-02 06:01N 55°59' W 003°10'0 0.0
2018-Nov-02 05:58N 55°59' W 003°10'0 0.0
2018-Nov-02 05:28N 55°59' W 003°10'0 0.0
2018-Nov-02 04:58N 55°59' W 003°10'0 0.0
2018-Nov-02 04:28N 55°59' W 003°10'0 0.0
2018-Nov-02 04:01N 55°59' W 003°10'0 0.0
2018-Nov-02 03:58N 55°59' W 003°10'0 0.0
2018-Nov-02 03:28N 55°59' W 003°10'0 0.0
2018-Nov-02 02:58N 55°59' W 003°10'0 0.0
2018-Nov-02 02:28N 55°59' W 003°10'0 0.0
2018-Nov-02 01:52N 55°59' W 003°10'0 0.0
2018-Nov-02 01:28N 55°59' W 003°10'0 0.0
2018-Nov-02 00:58N 55°59' W 003°10'0 0.0
2018-Nov-02 00:52N 55°59' W 003°10'0 0.0
2018-Nov-02 00:34N 55°59' W 003°10'0 0.0
2018-Nov-02 00:28N 55°59' W 003°10'0 0.0
2018-Nov-02 00:01N 55°59' W 003°10'0 0.0
2018-Nov-01 23:58N 55°59' W 003°10'0 0.0
2018-Nov-01 23:28N 55°59' W 003°10'0 0.0
2018-Nov-01 22:58N 55°59' W 003°10'0 0.0
2018-Nov-01 22:28N 55°59' W 003°10'0 0.0
2018-Nov-01 21:58N 55°59' W 003°10'0 0.0
2018-Nov-01 21:22N 55°59' W 003°10'0 0.0
2018-Nov-01 20:58N 55°59' W 003°10'0 0.0
2018-Nov-01 20:28N 55°59' W 003°10'0 0.0
2018-Nov-01 19:58N 55°59' W 003°10'0 0.0
2018-Nov-01 19:28N 55°59' W 003°10'0 0.0
2018-Nov-01 18:58N 55°59' W 003°10'0 0.0
2018-Nov-01 18:28N 55°59' W 003°10'0 0.0
2018-Nov-01 17:58N 55°59' W 003°10'0 0.0
2018-Nov-01 17:28N 55°59' W 003°10'0 0.0
2018-Nov-01 15:49N 55°59' W 003°10'0 0.0
2018-Nov-01 15:19N 55°59' W 003°10'0 0.0
2018-Nov-01 15:01N 55°59' W 003°10'0 0.0
2018-Nov-01 14:55N 55°59' W 003°10'0 0.0
2018-Nov-01 14:13N 55°59' W 003°10'0 0.0
2018-Nov-01 13:55N 55°59' W 003°10'0 0.0
2018-Nov-01 13:28N 55°59' W 003°10'0 0.0
2018-Nov-01 12:55N 55°59' W 003°10'0 0.0
2018-Nov-01 12:28N 55°59' W 003°10'0 0.0
2018-Nov-01 12:01N 55°59' W 003°10'0 0.0
2018-Nov-01 11:58N 55°59' W 003°10'0 0.0
2018-Nov-01 11:28N 55°59' W 003°10'0 0.0
2018-Nov-01 11:01N 55°59' W 003°10'0 0.0
2018-Nov-01 10:58N 55°59' W 003°10'0 0.0
2018-Nov-01 10:28N 55°59' W 003°10'0 0.0
2018-Nov-01 10:01N 55°59' W 003°10'0 0.0
2018-Nov-01 09:55N 55°59' W 003°10'0 0.0
2018-Nov-01 09:28N 55°59' W 003°10'0 0.0
2018-Nov-01 09:01N 55°59' W 003°10'0 0.0
2018-Nov-01 08:58N 55°59' W 003°10'0 0.0
2018-Nov-01 08:28N 55°59' W 003°10'0 0.2
2018-Nov-01 08:04N 55°59' W 003°10'0 0.6
2018-Nov-01 08:00N 55°59' W 003°10'0 0.9
2018-Nov-01 07:30N 55°59' W 003°11'1 1.9
2018-Nov-01 07:04N 56°00' W 003°12'0 4.4
2018-Nov-01 07:00N 56°00' W 003°11'4 9.0
2018-Nov-01 06:30N 56°02' W 003°04'3 7.0
2018-Nov-01 06:03N 56°04' W 002°59'0 8.1
2018-Nov-01 06:00N 56°04' W 002°59'4 8.5
2018-Nov-01 05:30N 56°05' W 002°52'4 8.4
2018-Nov-01 05:03N 56°06' W 002°45'0 8.4
2018-Nov-01 05:00N 56°06' W 002°44'4 8.2
2018-Nov-01 04:30N 56°06' W 002°37'3 7.8
2018-Nov-01 04:03N 56°04' W 002°31'0 7.8
2018-Nov-01 04:00N 56°04' W 002°30'4 7.8
2018-Nov-01 03:30N 56°02' W 002°24'4 8.1
2018-Nov-01 02:58N 56°00' W 002°17'  
Track history (hours):
 
Tides and Currents Weather Stations Pressure Air Temp Water Temp Dewpoint Dewpoint Depression Visibility Wind Speed Wind Dir Waves Ship Positions

Abis Bremen

Last reported at 2018-Nov-11 02:32 UTC. Time now 2018-Nov-18 16:09 UTC.
Position N 54°41' E 019°46'.

Length 90 m; draft 5.2 m.

Type: Ship. MMSI: 246778880.

Date/timePositionNaut miles runAvg speedWind from/ knotsBaromVisibWave heightAir tempDewpointWater temp
2018-Nov-11 02:32N 54°41' E 019°46'611.3
2018-Nov-11 02:02N 54°43' E 019°37'611.4
2018-Nov-11 01:32N 54°45' E 019°28'611.3
2018-Nov-11 01:02N 54°47' E 019°19'611.1
2018-Nov-11 00:32N 54°49' E 019°10'510.9
2018-Nov-11 00:02N 54°50' E 019°01'510.7
2018-Nov-10 23:32N 54°52' E 018°52'610.9
2018-Nov-10 23:02N 54°54' E 018°43'511.0
2018-Nov-10 22:32N 54°55' E 018°34'4211.0
2018-Nov-10 18:45N 54°53' E 017°21'2 9.9
2018-Nov-10 18:32N 54°52' E 017°18'810.0
2018-Nov-10 17:44N 54°51' E 017°04'210.0
2018-Nov-10 17:32N 54°50' E 017°01'710.0
2018-Nov-10 16:49N 54°48' E 016°49'710.0
2018-Nov-10 16:10N 54°47' E 016°38'2011.4
2018-Nov-10 14:26N 54°45' E 016°03'511.6
2018-Nov-10 13:58N 54°45' E 015°54'2211.7
2018-Nov-10 12:05N 54°44' E 015°16'611.6
2018-Nov-10 11:36N 54°44' E 015°06'111.6
2018-Nov-10 11:31N 54°44' E 015°05'611.8
2018-Nov-10 11:02N 54°43' E 014°55'1511.6
2018-Nov-10 09:44N 54°43' E 014°29'5011.1
2018-Nov-10 05:14N 54°45' E 013°03'811.0
2018-Nov-10 04:30N 54°44' E 012°48'510.6
2018-Nov-10 04:02N 54°43' E 012°40'611.3
2018-Nov-10 03:32N 54°39' E 012°33'611.5
2018-Nov-10 03:02N 54°35' E 012°26'611.5
2018-Nov-10 02:32N 54°32' E 012°18'611.4
2018-Nov-10 02:00N 54°26' E 012°13'510.3
2018-Nov-10 01:32N 54°25' E 012°05'611.3
2018-Nov-10 01:02N 54°25' E 011°55'711.6
2018-Nov-10 00:28N 54°25' E 011°44'511.4
2018-Nov-10 00:02N 54°27' E 011°36'510.8
2018-Nov-09 23:32N 54°30' E 011°28'510.5
2018-Nov-09 23:02N 54°32' E 011°20'5 9.9
2018-Nov-09 22:32N 54°34' E 011°13'510.1
2018-Nov-09 22:02N 54°35' E 011°04'611.2
2018-Nov-09 21:32N 54°35' E 010°54'611.5
2018-Nov-09 21:02N 54°34' E 010°45'611.4
2018-Nov-09 20:32N 54°34' E 010°35'611.6
2018-Nov-09 20:02N 54°31' E 010°26'611.4
2018-Nov-09 19:32N 54°29' E 010°17'611.1
2018-Nov-09 19:02N 54°24' E 010°12'3 6.0
2018-Nov-09 18:32N 54°22' E 010°09'0 0.0
2018-Nov-09 18:02N 54°22' E 010°09'2 3.8
2018-Nov-09 17:32N 54°22' E 010°05'4 7.9
2018-Nov-09 17:02N 54°21' E 009°59'2 4.5
2018-Nov-09 16:32N 54°21' E 009°55'4 8.0
2018-Nov-09 16:02N 54°22' E 009°49'4 8.2
2018-Nov-09 15:32N 54°19' E 009°43'4 7.4
2018-Nov-09 15:02N 54°17' E 009°38'4 7.5
2018-Nov-09 14:32N 54°13' E 009°36'4 8.2
2018-Nov-09 14:02N 54°11' E 009°30'4 8.5
2018-Nov-09 13:32N 54°10' E 009°24'5 7.4
2018-Nov-09 12:49N 54°05' E 009°19'4 8.2
2018-Nov-09 12:22N 54°01' E 009°18'3 8.4
2018-Nov-09 12:02N 53°59' E 009°16'4 8.4
2018-Nov-09 11:32N 53°55' E 009°12'2 5.0
2018-Nov-09 11:02N 53°54' E 009°09'1 1.3
2018-Nov-09 10:32N 53°53' E 009°08'3 6.3
2018-Nov-09 10:02N 53°52' E 009°03'611.3
2018-Nov-09 09:32N 53°50' E 008°54'611.2
2018-Nov-09 09:02N 53°52' E 008°44'611.1
2018-Nov-09 08:32N 53°56' E 008°39'611.0
2018-Nov-09 08:02N 53°58' E 008°30'611.0
2018-Nov-09 07:32N 53°59' E 008°21'611.3
2018-Nov-09 07:02N 53°59' E 008°12'510.8
2018-Nov-09 06:32N 54°00' E 008°03'611.1
2018-Nov-09 06:02N 54°03' E 007°54'510.9
2018-Nov-09 05:32N 54°05' E 007°46'610.5
2018-Nov-09 05:00N 54°08' E 007°37'510.1
2018-Nov-09 04:31N 54°09' E 007°29'1210.5
2018-Nov-09 03:23N 54°09' E 007°09'1210.4
2018-Nov-09 02:14N 54°09' E 006°48'1410.6
2018-Nov-09 00:53N 54°09' E 006°24'27010.8
2018-Nov-07 23:59N 55°41' W 000°56'4 8.8
2018-Nov-07 23:32N 55°43' W 001°03'4 8.5
2018-Nov-07 23:02N 55°44' W 001°10'4 8.4
2018-Nov-07 22:32N 55°46' W 001°17'4 8.3
2018-Nov-07 22:03N 55°47' W 001°24'4 7.7
2018-Nov-07 21:32N 55°49' W 001°30'4 7.1
2018-Nov-07 21:02N 55°50' W 001°36'3 6.7
2018-Nov-07 20:32N 55°51' W 001°42'3 6.6
2018-Nov-07 20:02N 55°52' W 001°47'3 6.7
2018-Nov-07 19:32N 55°54' W 001°53'3 6.6
2018-Nov-07 19:02N 55°55' W 001°58'4 7.2
2018-Nov-07 18:32N 55°56' W 002°04'14 9.7
2018-Nov-07 17:08N 56°02' W 002°26'110.6
2018-Nov-07 17:02N 56°02' W 002°28'510.6
2018-Nov-07 16:32N 56°05' W 002°36'611.1
2018-Nov-07 16:02N 56°05' W 002°46'611.6
2018-Nov-07 15:32N 56°04' W 002°56'3 5.6
2018-Nov-07 15:00N 56°01' W 002°59'0 0.0
2018-Nov-07 14:30N 56°01' W 002°59'0 0.1
2018-Nov-07 14:00N 56°01' W 002°59'0 0.0
2018-Nov-07 13:30N 56°01' W 002°59'0 0.0
2018-Nov-07 13:00N 56°01' W 002°59'0 0.0
2018-Nov-07 12:30N 56°01' W 002°59'0 0.0
2018-Nov-07 12:00N 56°01' W 002°59'0 0.0
2018-Nov-07 11:30N 56°01' W 002°59'0 0.0
2018-Nov-07 11:00N 56°01' W 002°59'0 0.0
2018-Nov-07 10:30N 56°01' W 002°59'0 0.0
2018-Nov-07 10:00N 56°01' W 002°59'0 0.0
2018-Nov-07 09:30N 56°01' W 002°59'0 0.0
2018-Nov-07 09:00N 56°01' W 002°59'0 0.0
2018-Nov-07 08:30N 56°01' W 002°59'0 0.0
2018-Nov-07 08:00N 56°01' W 002°59'0 0.0
2018-Nov-07 07:30N 56°01' W 002°59'0 0.0
2018-Nov-07 07:00N 56°01' W 002°59'0 0.0
2018-Nov-07 06:30N 56°01' W 002°59'0 0.1
2018-Nov-07 06:00N 56°01' W 002°59'0 0.0
2018-Nov-07 05:30N 56°01' W 002°59'0 0.0
2018-Nov-07 05:00N 56°01' W 002°59'0 0.0
2018-Nov-07 04:30N 56°01' W 002°59'0 0.0
2018-Nov-06 23:30N 56°01' W 002°59'0 0.0
2018-Nov-06 23:03N 56°01' W 002°59'0 0.1
2018-Nov-06 22:57N 56°01' W 002°59'0 0.0
2018-Nov-06 22:00N 56°01' W 002°59'3 6.0
2018-Nov-06 21:30N 56°02' W 003°05'4 8.4
2018-Nov-06 21:03N 56°00' W 003°11'0 8.0
2018-Nov-06 21:01N 56°00' W 003°12'1 1.8
2018-Nov-06 20:30N 55°59' W 003°11'0 0.6
2018-Nov-06 20:03N 55°59' W 003°10'0 1.0
2018-Nov-06 19:55N 55°59' W 003°10'0 0.0
2018-Nov-06 19:28N 55°59' W 003°10'0 0.0
2018-Nov-06 18:58N 55°59' W 003°10'0 0.0
2018-Nov-06 18:25N 55°59' W 003°10'0 0.0
2018-Nov-06 17:58N 55°59' W 003°10'0 0.0
2018-Nov-06 17:28N 55°59' W 003°10'0 0.0
2018-Nov-06 16:43N 55°59' W 003°10'0 0.0
2018-Nov-06 16:28N 55°59' W 003°10'0 0.0
2018-Nov-06 16:01N 55°59' W 003°10'0 0.0
2018-Nov-06 15:58N 55°59' W 003°10'0 0.0
2018-Nov-06 15:28N 55°59' W 003°10'0 0.0
2018-Nov-06 15:01N 55°59' W 003°10'0 0.0
2018-Nov-06 14:58N 55°59' W 003°10'0 0.0
2018-Nov-06 14:28N 55°59' W 003°10'0 0.0
2018-Nov-06 14:01N 55°59' W 003°10'0 0.0
2018-Nov-06 13:55N 55°59' W 003°10'0 0.0
2018-Nov-06 13:28N 55°59' W 003°10'0 0.0
2018-Nov-06 13:01N 55°59' W 003°10'0 0.1
2018-Nov-06 12:58N 55°59' W 003°10'0 0.0
2018-Nov-06 12:28N 55°59' W 003°10'0 0.0
2018-Nov-06 11:58N 55°59' W 003°10'0 0.0
2018-Nov-06 11:28N 55°59' W 003°10'0 0.0
2018-Nov-06 11:01N 55°59' W 003°10'0 0.0
2018-Nov-06 10:58N 55°59' W 003°10'0 0.0
2018-Nov-06 10:28N 55°59' W 003°10'0 0.0
2018-Nov-06 10:01N 55°59' W 003°10'0 0.0
2018-Nov-06 09:58N 55°59' W 003°10'0 0.0
2018-Nov-06 09:28N 55°59' W 003°10'0 0.0
2018-Nov-06 09:01N 55°59' W 003°10'0 0.0
2018-Nov-06 08:58N 55°59' W 003°10'0 0.0
2018-Nov-06 08:28N 55°59' W 003°10'0 0.0
2018-Nov-06 08:01N 55°59' W 003°10'0 0.0
2018-Nov-06 07:58N 55°59' W 003°10'0 0.0
2018-Nov-06 07:25N 55°59' W 003°10'0 0.0
2018-Nov-06 07:01N 55°59' W 003°10'0 0.0
2018-Nov-06 06:58N 55°59' W 003°10'0 0.0
2018-Nov-06 06:28N 55°59' W 003°10'0 0.0
2018-Nov-06 06:01N 55°59' W 003°10'0 0.0
2018-Nov-06 05:58N 55°59' W 003°10'0 0.0
2018-Nov-06 05:28N 55°59' W 003°10'0 0.0
2018-Nov-06 05:01N 55°59' W 003°10'0 0.0
2018-Nov-06 04:58N 55°59' W 003°10'0 0.0
2018-Nov-06 04:28N 55°59' W 003°10'0 0.0
2018-Nov-06 04:01N 55°59' W 003°10'0 0.0
2018-Nov-06 03:58N 55°59' W 003°10'0 0.0
2018-Nov-06 03:28N 55°59' W 003°10'0 0.0
2018-Nov-06 03:01N 55°59' W 003°10'0 0.1
2018-Nov-06 02:58N 55°59' W 003°10'0 0.0
2018-Nov-06 02:28N 55°59' W 003°10'0 0.0
2018-Nov-06 02:01N 55°59' W 003°10'0 0.0
2018-Nov-06 01:58N 55°59' W 003°10'0 0.0
2018-Nov-06 01:28N 55°59' W 003°10'0 0.0
2018-Nov-06 00:58N 55°59' W 003°10'0 0.0
2018-Nov-05 23:28N 55°59' W 003°10'0 0.0
2018-Nov-05 23:01N 55°59' W 003°10'0 0.0
2018-Nov-05 22:58N 55°59' W 003°10'0 0.0
2018-Nov-05 22:28N 55°59' W 003°10'0 0.0
2018-Nov-05 22:01N 55°59' W 003°10'0 0.0
2018-Nov-05 21:58N 55°59' W 003°10'0 0.0
2018-Nov-05 21:28N 55°59' W 003°10'0 0.0
2018-Nov-05 21:01N 55°59' W 003°10'0 0.0
2018-Nov-05 20:58N 55°59' W 003°10'0 0.0
2018-Nov-05 20:28N 55°59' W 003°10'0 0.0
2018-Nov-05 20:01N 55°59' W 003°10'0 0.0
2018-Nov-05 19:58N 55°59' W 003°10'0 0.0
2018-Nov-05 19:28N 55°59' W 003°10'0 0.0
2018-Nov-05 19:01N 55°59' W 003°10'0 0.1
2018-Nov-05 18:58N 55°59' W 003°10'0 0.0
2018-Nov-05 18:28N 55°59' W 003°10'0 0.0
2018-Nov-05 18:01N 55°59' W 003°10'0 0.0
2018-Nov-05 17:58N 55°59' W 003°10'0 0.0
2018-Nov-05 17:28N 55°59' W 003°10'0 0.0
2018-Nov-05 17:01N 55°59' W 003°10'0 0.0
2018-Nov-05 16:58N 55°59' W 003°10'0 0.0
2018-Nov-05 16:28N 55°59' W 003°10'0 0.0
2018-Nov-05 16:01N 55°59' W 003°10'0 0.0
2018-Nov-05 15:58N 55°59' W 003°10'0 0.0
2018-Nov-05 15:28N 55°59' W 003°10'0 0.0
2018-Nov-05 15:01N 55°59' W 003°10'0 0.0
2018-Nov-05 14:58N 55°59' W 003°10'0 0.0
2018-Nov-05 14:28N 55°59' W 003°10'0 0.0
2018-Nov-05 14:01N 55°59' W 003°10'0 0.0
2018-Nov-05 13:16N 55°59' W 003°10'0 0.0
2018-Nov-05 12:04N 55°59' W 003°10'0 0.0
2018-Nov-05 11:58N 55°59' W 003°10'0 0.0
2018-Nov-05 11:28N 55°59' W 003°10'0 0.0
2018-Nov-05 10:52N 55°59' W 003°10'0 0.0
2018-Nov-05 10:28N 55°59' W 003°10'0 0.0
2018-Nov-05 09:55N 55°59' W 003°10'0 0.0
2018-Nov-05 09:28N 55°59' W 003°10'0 0.0
2018-Nov-05 08:52N 55°59' W 003°10'0 0.0
2018-Nov-05 08:28N 55°59' W 003°10'0 0.0
2018-Nov-05 08:01N 55°59' W 003°10'0 0.0
2018-Nov-05 07:58N 55°59' W 003°10'0 0.0
2018-Nov-05 07:28N 55°59' W 003°10'0 0.0
2018-Nov-05 07:01N 55°59' W 003°10'0 0.0
2018-Nov-05 06:58N 55°59' W 003°10'0 0.0
2018-Nov-05 06:28N 55°59' W 003°10'0 0.0
2018-Nov-05 06:01N 55°59' W 003°10'0 0.0
2018-Nov-05 05:58N 55°59' W 003°10'0 0.0
2018-Nov-05 05:28N 55°59' W 003°10'0 0.0
2018-Nov-05 05:01N 55°59' W 003°10'0 0.0
2018-Nov-05 04:58N 55°59' W 003°10'0 0.0
2018-Nov-05 04:28N 55°59' W 003°10'0 0.0
2018-Nov-05 04:01N 55°59' W 003°10'0 0.0
2018-Nov-05 03:58N 55°59' W 003°10'0 0.0
2018-Nov-05 03:28N 55°59' W 003°10'0 0.0
2018-Nov-05 03:01N 55°59' W 003°10'0 0.0
2018-Nov-05 02:58N 55°59' W 003°10'0 0.0
2018-Nov-05 02:28N 55°59' W 003°10'0 0.0
2018-Nov-05 02:01N 55°59' W 003°10'0 0.0
2018-Nov-05 01:58N 55°59' W 003°10'0 0.0
2018-Nov-05 01:28N 55°59' W 003°10'0 0.0
2018-Nov-05 01:01N 55°59' W 003°10'0 0.1
2018-Nov-05 00:58N 55°59' W 003°10'0 0.0
2018-Nov-05 00:28N 55°59' W 003°10'0 0.0
2018-Nov-05 00:01N 55°59' W 003°10'0 0.0
2018-Nov-04 23:58N 55°59' W 003°10'0 0.0
2018-Nov-04 23:28N 55°59' W 003°10'0 0.0
2018-Nov-04 23:01N 55°59' W 003°10'0 0.0
2018-Nov-04 22:58N 55°59' W 003°10'0 0.0
2018-Nov-04 22:28N 55°59' W 003°10'0 0.0
2018-Nov-04 22:01N 55°59' W 003°10'0 0.0
2018-Nov-04 21:58N 55°59' W 003°10'0 0.0
2018-Nov-04 21:28N 55°59' W 003°10'0 0.0
2018-Nov-04 21:01N 55°59' W 003°10'0 0.0
2018-Nov-04 20:58N 55°59' W 003°10'0 0.0
2018-Nov-04 20:28N 55°59' W 003°10'0 0.0
2018-Nov-04 19:55N 55°59' W 003°10'0 0.0
2018-Nov-04 19:25N 55°59' W 003°10'0 0.0
2018-Nov-04 19:01N 55°59' W 003°10'0 0.0
2018-Nov-04 18:55N 55°59' W 003°10'0 0.0
2018-Nov-04 18:28N 55°59' W 003°10'0 0.0
2018-Nov-04 18:01N 55°59' W 003°10'0 0.0
2018-Nov-04 17:58N 55°59' W 003°10'0 0.0
2018-Nov-04 17:28N 55°59' W 003°10'0 0.0
2018-Nov-04 16:52N 55°59' W 003°10'0 0.0
2018-Nov-04 16:28N 55°59' W 003°10'0 0.0
2018-Nov-04 16:01N 55°59' W 003°10'0 0.0
2018-Nov-04 15:52N 55°59' W 003°10'0 0.0
2018-Nov-04 15:28N 55°59' W 003°10'0 0.0
2018-Nov-04 15:01N 55°59' W 003°10'0 0.0
2018-Nov-04 14:58N 55°59' W 003°10'0 0.0
2018-Nov-04 14:25N 55°59' W 003°10'0 0.0
2018-Nov-04 13:58N 55°59' W 003°10'0 0.0
2018-Nov-04 13:28N 55°59' W 003°10'0 0.0
2018-Nov-04 13:01N 55°59' W 003°10'0 0.1
2018-Nov-04 12:58N 55°59' W 003°10'0 0.0
2018-Nov-04 12:28N 55°59' W 003°10'0 0.0
2018-Nov-04 12:01N 55°59' W 003°10'0 0.0
2018-Nov-04 11:58N 55°59' W 003°10'0 0.0
2018-Nov-04 11:25N 55°59' W 003°10'0 0.0
2018-Nov-04 11:01N 55°59' W 003°10'0 0.0
2018-Nov-04 10:46N 55°59' W 003°10'0 0.0
2018-Nov-04 10:28N 55°59' W 003°10'0 0.0
2018-Nov-04 09:58N 55°59' W 003°10'0 0.0
2018-Nov-04 09:28N 55°59' W 003°10'0 0.0
2018-Nov-04 09:01N 55°59' W 003°10'0 0.0
2018-Nov-04 08:49N 55°59' W 003°10'0 0.0
2018-Nov-04 08:28N 55°59' W 003°10'0 0.0
2018-Nov-04 07:58N 55°59' W 003°10'0 0.0
2018-Nov-04 07:28N 55°59' W 003°10'0 0.0
2018-Nov-04 07:01N 55°59' W 003°10'0 0.0
2018-Nov-04 06:58N 55°59' W 003°10'0 0.0
2018-Nov-04 06:28N 55°59' W 003°10'0 0.0
2018-Nov-04 06:01N 55°59' W 003°10'0 0.0
2018-Nov-04 05:58N 55°59' W 003°10'0 0.0
2018-Nov-04 05:28N 55°59' W 003°10'0 0.0
2018-Nov-04 05:01N 55°59' W 003°10'0 0.0
2018-Nov-04 04:58N 55°59' W 003°10'0 0.0
2018-Nov-04 04:28N 55°59' W 003°10'0 0.0
2018-Nov-04 04:01N 55°59' W 003°10'0 0.0
2018-Nov-04 03:58N 55°59' W 003°10'0 0.0
2018-Nov-04 03:28N 55°59' W 003°10'0 0.0
2018-Nov-04 03:01N 55°59' W 003°10'0 0.1
2018-Nov-04 02:58N 55°59' W 003°10'0 0.0
2018-Nov-04 02:28N 55°59' W 003°10'0 0.0
2018-Nov-04 02:01N 55°59' W 003°10'0 0.0
2018-Nov-04 01:58N 55°59' W 003°10'0 0.0
2018-Nov-04 01:28N 55°59' W 003°10'0 0.0
2018-Nov-04 01:01N 55°59' W 003°10'0 0.0
2018-Nov-04 00:58N 55°59' W 003°10'0 0.0
2018-Nov-04 00:28N 55°59' W 003°10'0 0.0
2018-Nov-04 00:01N 55°59' W 003°10'0 0.1
2018-Nov-03 23:58N 55°59' W 003°10'0 0.0
2018-Nov-03 23:28N 55°59' W 003°10'0 0.0
2018-Nov-03 23:01N 55°59' W 003°10'0 0.0
2018-Nov-03 22:58N 55°59' W 003°10'0 0.0
2018-Nov-03 22:28N 55°59' W 003°10'0 0.0
2018-Nov-03 20:22N 55°59' W 003°10'0 0.0
2018-Nov-03 19:58N 55°59' W 003°10'0 0.0
2018-Nov-03 19:28N 55°59' W 003°10'0 0.0
2018-Nov-03 19:01N 55°59' W 003°10'0 0.0
2018-Nov-03 18:58N 55°59' W 003°10'0 0.0
2018-Nov-03 18:28N 55°59' W 003°10'0 0.0
2018-Nov-03 18:01N 55°59' W 003°10'0 0.0
2018-Nov-03 17:52N 55°59' W 003°10'0 0.0
2018-Nov-03 17:22N 55°59' W 003°10'0 0.0
2018-Nov-03 17:01N 55°59' W 003°10'0 0.0
2018-Nov-03 16:58N 55°59' W 003°10'0 0.0
2018-Nov-03 16:28N 55°59' W 003°10'0 0.0
2018-Nov-03 15:55N 55°59' W 003°10'0 0.0
2018-Nov-03 15:28N 55°59' W 003°10'0 0.0
2018-Nov-03 15:01N 55°59' W 003°10'0 0.0
2018-Nov-03 14:58N 55°59' W 003°10'0 0.0
2018-Nov-03 14:28N 55°59' W 003°10'0 0.0
2018-Nov-03 14:01N 55°59' W 003°10'0 0.1
2018-Nov-03 13:55N 55°59' W 003°10'0 0.0
2018-Nov-03 13:22N 55°59' W 003°10'0 0.0
2018-Nov-03 13:01N 55°59' W 003°10'0 0.0
2018-Nov-03 12:58N 55°59' W 003°10'0 0.0
2018-Nov-03 12:16N 55°59' W 003°10'0 0.0
2018-Nov-03 11:49N 55°59' W 003°10'0 0.0
2018-Nov-03 11:28N 55°59' W 003°10'0 0.0
2018-Nov-03 11:01N 55°59' W 003°10'0 0.0
2018-Nov-03 10:55N 55°59' W 003°10'0 0.0
2018-Nov-03 10:22N 55°59' W 003°10'0 0.0
2018-Nov-03 09:58N 55°59' W 003°10'0 0.0
2018-Nov-03 09:22N 55°59' W 003°10'0 0.0
2018-Nov-03 09:01N 55°59' W 003°10'0 0.0
2018-Nov-03 08:34N 55°59' W 003°10'0 0.0
2018-Nov-03 08:28N 55°59' W 003°10'0 0.0
2018-Nov-03 07:40N 55°59' W 003°10'0 0.0
2018-Nov-03 07:28N 55°59' W 003°10'0 0.0
2018-Nov-03 07:01N 55°59' W 003°10'0 0.1
2018-Nov-03 06:58N 55°59' W 003°10'0 0.0
2018-Nov-03 06:28N 55°59' W 003°10'0 0.0
2018-Nov-03 06:01N 55°59' W 003°10'0 0.0
2018-Nov-03 05:58N 55°59' W 003°10'0 0.0
2018-Nov-03 05:28N 55°59' W 003°10'0 0.0
2018-Nov-03 05:01N 55°59' W 003°10'0 0.0
2018-Nov-03 04:58N 55°59' W 003°10'0 0.0
2018-Nov-03 04:28N 55°59' W 003°10'0 0.0
2018-Nov-03 04:01N 55°59' W 003°10'0 0.0
2018-Nov-03 03:58N 55°59' W 003°10'0 0.0
2018-Nov-03 03:28N 55°59' W 003°10'0 0.0
2018-Nov-03 03:01N 55°59' W 003°10'0 0.0
2018-Nov-03 02:58N 55°59' W 003°10'0 0.0
2018-Nov-03 02:28N 55°59' W 003°10'0 0.0
2018-Nov-03 02:01N 55°59' W 003°10'0 0.0
2018-Nov-03 01:58N 55°59' W 003°10'0 0.0
2018-Nov-03 01:22N 55°59' W 003°10'0 0.0
2018-Nov-03 01:01N 55°59' W 003°10'0 0.0
2018-Nov-03 00:58N 55°59' W 003°10'0 0.0
2018-Nov-03 00:28N 55°59' W 003°10'0 0.0
2018-Nov-02 23:52N 55°59' W 003°10'0 0.0
2018-Nov-02 23:16N 55°59' W 003°10'0 0.0
2018-Nov-02 22:58N 55°59' W 003°10'0 0.0
2018-Nov-02 22:28N 55°59' W 003°10'0 0.0
2018-Nov-02 21:58N 55°59' W 003°10'0 0.0
2018-Nov-02 21:22N 55°59' W 003°10'0 0.0
2018-Nov-02 19:52N 55°59' W 003°10'0 0.0
2018-Nov-02 19:16N 55°59' W 003°10'0 0.0
2018-Nov-02 17:58N 55°59' W 003°10'0 0.0
2018-Nov-02 16:19N 55°59' W 003°10'0 0.0
2018-Nov-02 15:49N 55°59' W 003°10'0 0.0
2018-Nov-02 15:25N 55°59' W 003°10'0 0.0
2018-Nov-02 15:01N 55°59' W 003°10'0 0.0
2018-Nov-02 14:40N 55°59' W 003°10'0 0.0
2018-Nov-02 14:28N 55°59' W 003°10'0 0.0
2018-Nov-02 13:49N 55°59' W 003°10'0 0.0
2018-Nov-02 13:10N 55°59' W 003°10'0 0.0
2018-Nov-02 12:58N 55°59' W 003°10'0 0.0
2018-Nov-02 11:49N 55°59' W 003°10'0 0.0
2018-Nov-02 11:28N 55°59' W 003°10'0 0.0
2018-Nov-02 10:49N 55°59' W 003°10'0 0.0
2018-Nov-02 10:28N 55°59' W 003°10'0 0.0
2018-Nov-02 10:01N 55°59' W 003°10'0 0.0
2018-Nov-02 09:49N 55°59' W 003°10'0 0.0
2018-Nov-02 09:13N 55°59' W 003°10'0 0.0
2018-Nov-02 08:46N 55°59' W 003°10'0 0.0
2018-Nov-02 08:28N 55°59' W 003°10'0 0.0
2018-Nov-02 06:58N 55°59' W 003°10'0 0.0
2018-Nov-02 06:28N 55°59' W 003°10'0 0.0
2018-Nov-02 06:01N 55°59' W 003°10'0 0.0
2018-Nov-02 05:58N 55°59' W 003°10'0 0.0
2018-Nov-02 05:28N 55°59' W 003°10'0 0.0
2018-Nov-02 04:58N 55°59' W 003°10'0 0.0
2018-Nov-02 04:28N 55°59' W 003°10'0 0.0
2018-Nov-02 04:01N 55°59' W 003°10'0 0.0
2018-Nov-02 03:58N 55°59' W 003°10'0 0.0
2018-Nov-02 03:28N 55°59' W 003°10'0 0.0
2018-Nov-02 02:58N 55°59' W 003°10'0 0.0
2018-Nov-02 02:28N 55°59' W 003°10'0 0.0
2018-Nov-02 01:52N 55°59' W 003°10'0 0.0
2018-Nov-02 01:28N 55°59' W 003°10'0 0.0
2018-Nov-02 00:58N 55°59' W 003°10'0 0.0
2018-Nov-02 00:52N 55°59' W 003°10'0 0.0
2018-Nov-02 00:34N 55°59' W 003°10'0 0.0
2018-Nov-02 00:28N 55°59' W 003°10'0 0.0
2018-Nov-02 00:01N 55°59' W 003°10'0 0.0
2018-Nov-01 23:58N 55°59' W 003°10'0 0.0
2018-Nov-01 23:28N 55°59' W 003°10'0 0.0
2018-Nov-01 22:58N 55°59' W 003°10'0 0.0
2018-Nov-01 22:28N 55°59' W 003°10'0 0.0
2018-Nov-01 21:58N 55°59' W 003°10'0 0.0
2018-Nov-01 21:22N 55°59' W 003°10'0 0.0
2018-Nov-01 20:58N 55°59' W 003°10'0 0.0
2018-Nov-01 20:28N 55°59' W 003°10'0 0.0
2018-Nov-01 19:58N 55°59' W 003°10'0 0.0
2018-Nov-01 19:28N 55°59' W 003°10'0 0.0
2018-Nov-01 18:58N 55°59' W 003°10'0 0.0
2018-Nov-01 18:28N 55°59' W 003°10'0 0.0
2018-Nov-01 17:58N 55°59' W 003°10'0 0.0
2018-Nov-01 17:28N 55°59' W 003°10'0 0.0
2018-Nov-01 15:49N 55°59' W 003°10'0 0.0
2018-Nov-01 15:19N 55°59' W 003°10'0 0.0
2018-Nov-01 15:01N 55°59' W 003°10'0 0.0
2018-Nov-01 14:55N 55°59' W 003°10'0 0.0
2018-Nov-01 14:13N 55°59' W 003°10'0 0.0
2018-Nov-01 13:55N 55°59' W 003°10'0 0.0
2018-Nov-01 13:28N 55°59' W 003°10'0 0.0
2018-Nov-01 12:55N 55°59' W 003°10'0 0.0
2018-Nov-01 12:28N 55°59' W 003°10'0 0.0
2018-Nov-01 12:01N 55°59' W 003°10'0 0.0
2018-Nov-01 11:58N 55°59' W 003°10'0 0.0
2018-Nov-01 11:28N 55°59' W 003°10'0 0.0
2018-Nov-01 11:01N 55°59' W 003°10'0 0.0
2018-Nov-01 10:58N 55°59' W 003°10'0 0.0
2018-Nov-01 10:28N 55°59' W 003°10'0 0.0
2018-Nov-01 10:01N 55°59' W 003°10'0 0.0
2018-Nov-01 09:55N 55°59' W 003°10'0 0.0
2018-Nov-01 09:28N 55°59' W 003°10'0 0.0
2018-Nov-01 09:01N 55°59' W 003°10'0 0.0
2018-Nov-01 08:58N 55°59' W 003°10'0 0.0
2018-Nov-01 08:28N 55°59' W 003°10'0 0.2
2018-Nov-01 08:04N 55°59' W 003°10'0 0.6
2018-Nov-01 08:00N 55°59' W 003°10'0 0.9
2018-Nov-01 07:30N 55°59' W 003°11'1 1.9
2018-Nov-01 07:04N 56°00' W 003°12'0 4.4
2018-Nov-01 07:00N 56°00' W 003°11'4 9.0
2018-Nov-01 06:30N 56°02' W 003°04'3 7.0
2018-Nov-01 06:03N 56°04' W 002°59'0 8.1
2018-Nov-01 06:00N 56°04' W 002°59'4 8.5
2018-Nov-01 05:30N 56°05' W 002°52'4 8.4
2018-Nov-01 05:03N 56°06' W 002°45'0 8.4
2018-Nov-01 05:00N 56°06' W 002°44'4 8.2
2018-Nov-01 04:30N 56°06' W 002°37'3 7.8
2018-Nov-01 04:03N 56°04' W 002°31'0 7.8
2018-Nov-01 04:00N 56°04' W 002°30'4 7.8
2018-Nov-01 03:30N 56°02' W 002°24'4 8.1
2018-Nov-01 02:58N 56°00' W 002°17'  

Dump ship's entire track history